Time;durP1;ratioP1;P1;durP2;ratioP2;P2;SDS_P1;SDS_P2;PMS_P1;PMS_P2;Temp;Humidity;BMP_temperature;BMP_pressure;BME280_temperature;BME280_humidity;BME280_pressure;Samples;Min_cycle;Max_cycle;Signal;HPM_P1;HPM_P2
2021/04/14 18:00:27;;;;;;;;;;;19.90;32.90;;;;;;5131409;27;20341;-79
2021/04/14 18:02:54;;;;;;;27.95;11.32;;;20.00;34.20;;;;;;5131458;28;19915;-80
2021/04/14 18:05:21;;;;;;;25.83;10.80;;;20.20;33.70;;;;;;5130990;28;20054;-79
2021/04/14 18:07:48;;;;;;;23.30;10.05;;;20.40;33.30;;;;;;5131449;28;20042;-74
2021/04/14 18:10:17;;;;;;;26.30;10.50;;;20.40;33.00;;;;;;5130524;28;20035;-82
2021/04/14 18:12:43;;;;;;;26.52;10.65;;;20.60;32.90;;;;;;5130882;28;20487;-82
2021/04/14 18:15:09;;;;;;;29.92;11.52;;;20.60;32.80;;;;;;5131664;28;20081;-79
2021/04/14 18:17:35;;;;;;;26.77;11.20;;;20.70;32.80;;;;;;5131147;28;20051;-84
2021/04/14 18:20:05;;;;;;;33.80;10.85;;;20.70;32.60;;;;;;5131344;28;20047;-84
2021/04/14 18:22:31;;;;;;;30.42;12.38;;;20.80;32.60;;;;;;5130875;28;20118;-82
2021/04/14 18:24:57;;;;;;;28.35;10.73;;;20.80;32.50;;;;;;5130825;28;20093;-84
2021/04/14 18:27:23;;;;;;;34.92;12.35;;;20.80;32.60;;;;;;5095497;28;20031;-82
2021/04/14 18:29:51;;;;;;;28.38;11.45;;;20.80;32.60;;;;;;5131111;28;20183;-83
2021/04/14 18:32:17;;;;;;;24.75;10.48;;;20.80;32.50;;;;;;5130940;28;20471;-85
2021/04/14 18:34:43;;;;;;;25.40;10.23;;;20.80;32.50;;;;;;5131655;28;20046;-81
2021/04/14 18:37:09;;;;;;;27.92;12.65;;;20.80;32.60;;;;;;5131381;28;20118;-83
2021/04/14 18:39:35;;;;;;;26.15;10.18;;;20.80;32.60;;;;;;5130405;28;20568;-83
2021/04/14 18:42:01;;;;;;;23.60;10.25;;;20.80;32.60;;;;;;5111970;28;20043;-83
2021/04/14 18:44:27;;;;;;;20.73;9.88;;;20.80;32.60;;;;;;5095507;28;20394;-81
2021/04/14 18:46:53;;;;;;;28.92;12.13;;;20.80;32.60;;;;;;5095567;28;20034;-84
2021/04/14 18:49:21;;;;;;;23.85;10.55;;;20.80;32.60;;;;;;5130793;28;20102;-82
2021/04/14 18:51:47;;;;;;;23.13;11.30;;;20.80;32.70;;;;;;5111871;28;20028;-81
2021/04/14 18:54:13;;;;;;;29.15;10.40;;;20.80;32.70;;;;;;5130464;28;20035;-84
2021/04/14 18:56:43;;;;;;;21.23;10.13;;;20.80;32.70;;;;;;5130745;28;20138;-81
2021/04/14 18:59:09;;;;;;;26.92;10.48;;;20.80;32.80;;;;;;5130398;28;20458;-83
2021/04/14 19:01:35;;;;;;;23.80;9.68;;;20.70;32.80;;;;;;5094909;28;20495;-78
2021/04/14 19:04:01;;;;;;;21.67;10.48;;;20.70;32.80;;;;;;5111594;28;20043;-81
2021/04/14 19:06:27;;;;;;;26.75;10.55;;;20.70;32.80;;;;;;5111659;28;20109;-83
2021/04/14 19:08:58;;;;;;;26.45;9.25;;;20.70;32.80;;;;;;5130223;28;20522;-81
2021/04/14 19:11:25;;;;;;;18.35;10.15;;;20.60;32.80;;;;;;5119382;28;20431;-82
2021/04/14 19:13:51;;;;;;;21.73;10.95;;;20.70;32.80;;;;;;5118084;28;20041;-81
2021/04/14 19:16:17;;;;;;;23.52;10.57;;;20.60;32.80;;;;;;5098408;28;20027;-82
2021/04/14 19:18:43;;;;;;;29.27;10.85;;;20.60;32.90;;;;;;5115999;28;20510;-82
2021/04/14 19:21:09;;;;;;;21.13;10.32;;;20.60;32.90;;;;;;5116945;28;20169;-84
2021/04/14 19:23:35;;;;;;;22.95;9.52;;;20.50;33.10;;;;;;5097868;28;20046;-79
2021/04/14 19:26:01;;;;;;;30.48;10.90;;;20.50;33.00;;;;;;5097782;28;20120;-78
2021/04/14 19:28:28;;;;;;;20.05;9.95;;;20.50;33.10;;;;;;5097781;28;20185;-83
2021/04/14 19:30:59;;;;;;;26.75;10.10;;;20.50;33.10;;;;;;5117708;28;20038;-80
2021/04/14 19:33:25;;;;;;;19.63;9.48;;;20.50;33.10;;;;;;5115953;28;20431;-83
2021/04/14 19:35:53;;;;;;;25.15;9.85;;;20.50;33.20;;;;;;5115518;28;20526;-80
2021/04/14 19:38:20;;;;;;;31.98;11.40;;;20.40;33.20;;;;;;5097360;28;20074;-76
2021/04/14 19:40:49;;;;;;;18.45;8.95;;;20.40;33.70;;;;;;5115753;28;20032;-81
2021/04/14 19:43:16;;;;;;;21.75;8.68;;;20.40;34.30;;;;;;5097159;28;20027;-81
2021/04/14 19:45:42;;;;;;;17.92;8.77;;;20.50;34.60;;;;;;5116058;28;20065;-81
2021/04/14 19:48:09;;;;;;;22.38;10.30;;;20.50;34.50;;;;;;5115720;28;20035;-80
2021/04/14 19:50:39;;;;;;;18.48;8.60;;;20.50;34.40;;;;;;5115585;28;20593;-80
2021/04/14 19:53:06;;;;;;;18.75;9.00;;;20.50;34.40;;;;;;5115469;28;20035;-84
2021/04/14 19:55:32;;;;;;;25.13;10.70;;;20.60;34.40;;;;;;5120230;28;20043;-75
2021/04/14 19:57:58;;;;;;;16.48;9.60;;;20.50;34.20;;;;;;5120676;28;20035;-76
2021/04/14 20:00:26;;;;;;;23.98;10.20;;;20.50;34.20;;;;;;5102649;28;20076;-75
2021/04/14 20:02:53;;;;;;;17.52;9.50;;;20.50;34.20;;;;;;5120372;28;20518;-76
2021/04/14 20:05:19;;;;;;;16.13;8.57;;;20.50;34.20;;;;;;5102559;28;20043;-76
2021/04/14 20:07:45;;;;;;;17.42;9.20;;;20.50;34.20;;;;;;5121348;28;20043;-76
2021/04/14 20:10:15;;;;;;;16.02;8.40;;;20.40;34.10;;;;;;5121202;28;20035;-76
2021/04/14 20:12:41;;;;;;;19.67;9.30;;;20.40;34.20;;;;;;5120933;28;20032;-76
2021/04/14 20:15:08;;;;;;;18.13;10.25;;;20.40;34.30;;;;;;5103211;28;20046;-76
2021/04/14 20:17:34;;;;;;;15.82;9.00;;;20.40;34.20;;;;;;5120085;28;20079;-75
2021/04/14 20:20:00;;;;;;;18.55;9.85;;;20.40;34.20;;;;;;5119059;28;20519;-74
2021/04/14 20:22:26;;;;;;;19.50;9.23;;;20.30;34.10;;;;;;5117895;28;20604;-75
2021/04/14 20:24:52;;;;;;;23.30;10.55;;;20.30;34.20;;;;;;5119429;28;20080;-75
2021/04/14 20:27:18;;;;;;;12.98;8.27;;;20.30;34.10;;;;;;5118991;28;20031;-75
2021/04/14 20:29:44;;;;;;;18.60;8.68;;;20.30;34.20;;;;;;5100876;28;20042;-75
2021/04/14 20:32:10;;;;;;;19.67;9.10;;;20.30;34.20;;;;;;5119421;28;20038;-73
2021/04/14 20:34:36;;;;;;;14.70;8.93;;;20.20;34.10;;;;;;5118761;28;20556;-74
2021/04/14 20:37:03;;;;;;;18.05;8.77;;;20.30;34.20;;;;;;5118344;28;20035;-75
2021/04/14 20:39:29;;;;;;;16.90;8.18;;;20.20;34.20;;;;;;5119031;28;20047;-73
2021/04/14 20:41:55;;;;;;;16.30;9.20;;;20.20;34.20;;;;;;5119775;28;20039;-74
2021/04/14 20:44:21;;;;;;;22.55;9.70;;;20.20;34.30;;;;;;5120325;28;20027;-75
2021/04/14 20:46:50;;;;;;;19.48;9.95;;;20.10;34.30;;;;;;5119367;28;20118;-75
2021/04/14 20:49:16;;;;;;;15.68;9.05;;;20.10;34.20;;;;;;5119851;28;20091;-76
2021/04/14 20:51:42;;;;;;;19.05;9.07;;;20.10;34.40;;;;;;5118211;28;20031;-73
2021/04/14 20:54:09;;;;;;;17.70;9.82;;;20.10;34.40;;;;;;5117624;28;20035;-74
2021/04/14 20:56:36;;;;;;;17.80;8.43;;;20.10;34.30;;;;;;5117481;28;20415;-75
2021/04/14 20:59:03;;;;;;;18.52;9.57;;;20.10;34.30;;;;;;5117232;28;20066;-74
2021/04/14 21:01:31;;;;;;;20.63;10.02;;;20.00;34.30;;;;;;5117236;28;20050;-72
2021/04/14 21:03:56;;;;;;;17.80;8.65;;;20.10;34.40;;;;;;5116881;28;20028;-74
2021/04/14 21:06:22;;;;;;;14.75;8.43;;;20.00;34.40;;;;;;5117143;28;20164;-74
2021/04/14 21:08:48;;;;;;;15.98;8.82;;;20.00;35.00;;;;;;5117482;28;20055;-74
2021/04/14 21:11:14;;;;;;;17.58;9.73;;;20.00;34.40;;;;;;5118098;28;20108;-74
2021/04/14 21:13:40;;;;;;;19.77;9.27;;;20.00;34.40;;;;;;5117857;28;20092;-73
2021/04/14 21:16:06;;;;;;;19.80;8.88;;;20.00;34.40;;;;;;5099656;28;20042;-73
2021/04/14 21:18:32;;;;;;;19.42;8.35;;;20.00;34.40;;;;;;5117941;28;20043;-74
2021/04/14 21:20:58;;;;;;;19.85;10.48;;;19.90;34.50;;;;;;5118556;28;20458;-75
2021/04/14 21:23:24;;;;;;;16.90;8.75;;;19.90;34.50;;;;;;5118801;28;20034;-74
2021/04/14 21:25:50;;;;;;;17.42;8.63;;;19.90;34.50;;;;;;5118878;28;20091;-74
2021/04/14 21:28:16;;;;;;;16.90;9.65;;;19.90;34.50;;;;;;5118709;28;20126;-73
2021/04/14 21:30:42;;;;;;;20.77;10.48;;;19.90;34.50;;;;;;5118100;28;20054;-73
2021/04/14 21:33:08;;;;;;;17.45;9.80;;;19.90;34.50;;;;;;5118377;28;20035;-73
2021/04/14 21:35:33;;;;;;;17.55;9.40;;;19.80;34.50;;;;;;5117840;28;20046;-73
2021/04/14 21:38:00;;;;;;;17.35;8.98;;;19.80;34.60;;;;;;5117769;28;20035;-73
2021/04/14 21:40:31;;;;;;;18.60;9.63;;;19.80;34.60;;;;;;5099245;28;20054;-73
2021/04/14 21:42:57;;;;;;;18.83;8.88;;;19.80;34.60;;;;;;5119387;28;20039;-76
2021/04/14 21:45:23;;;;;;;18.75;10.25;;;19.80;34.60;;;;;;5119966;28;20413;-75
2021/04/14 21:47:52;;;;;;;17.70;10.05;;;19.80;34.60;;;;;;5101366;28;20556;-75
2021/04/14 21:50:20;;;;;;;21.13;10.40;;;19.80;34.70;;;;;;5119496;28;20036;-76
2021/04/14 21:52:47;;;;;;;19.35;9.60;;;19.70;34.70;;;;;;5101020;28;20104;-75
2021/04/14 21:55:13;;;;;;;21.83;10.57;;;19.80;34.70;;;;;;5119174;28;20122;-73
2021/04/14 22:01:27;;;;;;;17.73;10.13;;;19.70;34.70;;;;;;5126394;28;20057;-74
2021/04/14 22:03:53;;;;;;;20.02;11.15;;;19.70;34.80;;;;;;5119993;28;20126;-73
2021/04/14 22:06:19;;;;;;;21.77;11.35;;;19.60;34.80;;;;;;5138489;28;20144;-74
2021/04/14 22:08:45;;;;;;;24.10;12.57;;;19.60;34.90;;;;;;5138233;28;20482;-73
2021/04/14 22:11:12;;;;;;;17.80;11.32;;;19.60;34.90;;;;;;5120092;28;20031;-74
2021/04/14 22:13:38;;;;;;;28.13;12.10;;;19.50;34.90;;;;;;5102904;28;20042;-74
2021/04/14 22:16:04;;;;;;;23.95;11.43;;;19.50;34.90;;;;;;5138653;28;20039;-75
2021/04/14 22:18:30;;;;;;;20.65;10.70;;;19.50;35.00;;;;;;5138397;28;20027;-75
2021/04/14 22:20:58;;;;;;;21.58;11.23;;;19.50;35.00;;;;;;5119954;28;20444;-75
2021/04/14 22:23:25;;;;;;;25.42;12.00;;;19.50;35.10;;;;;;5119346;28;20049;-74
2021/04/14 22:25:52;;;;;;;28.60;13.18;;;19.50;35.20;;;;;;5138095;28;20053;-74
2021/04/14 22:28:20;;;;;;;24.77;12.00;;;19.40;35.30;;;;;;5120497;28;20043;-73
2021/04/14 22:30:49;;;;;;;26.70;13.68;;;19.40;35.50;;;;;;5120046;28;20403;-74
2021/04/14 22:33:19;;;;;;;24.77;13.55;;;19.30;35.50;;;;;;5119852;28;20099;-73
2021/04/14 22:35:46;;;;;;;24.33;12.90;;;19.30;35.60;;;;;;5120234;28;20116;-75
2021/04/14 22:38:18;;;;;;;23.75;13.73;;;19.30;35.60;;;;;;5137894;28;20485;-75
2021/04/14 22:40:45;;;;;;;30.10;14.82;;;19.30;35.60;;;;;;5138188;28;20031;-74
2021/04/14 22:43:13;;;;;;;27.63;14.18;;;19.30;35.70;;;;;;5120251;28;20031;-74
2021/04/14 22:45:39;;;;;;;29.15;14.35;;;19.30;35.70;;;;;;5139812;27;20078;-74
2021/04/14 22:48:06;;;;;;;23.90;13.50;;;19.20;35.60;;;;;;5142732;27;20039;-74
2021/04/14 22:50:35;;;;;;;25.27;13.25;;;19.20;35.70;;;;;;5124670;27;20091;-73
2021/04/14 22:53:03;;;;;;;28.02;14.02;;;19.20;35.80;;;;;;5141777;27;20035;-73
2021/04/14 22:55:29;;;;;;;36.42;14.10;;;19.20;35.90;;;;;;5140816;27;20050;-75
2021/04/14 22:57:56;;;;;;;29.00;14.45;;;19.10;36.00;;;;;;5142653;27;20110;-74
2021/04/14 23:00:26;;;;;;;29.83;15.20;;;19.00;36.10;;;;;;5142515;27;20067;-75
2021/04/14 23:02:53;;;;;;;28.65;15.25;;;19.10;36.20;;;;;;5124883;27;20058;-75
2021/04/14 23:05:21;;;;;;;31.27;14.95;;;19.00;36.20;;;;;;5123607;27;20406;-73
2021/04/14 23:07:47;;;;;;;25.13;13.93;;;19.00;36.30;;;;;;5124215;27;20033;-73
2021/04/14 23:10:15;;;;;;;31.15;15.40;;;19.00;36.30;;;;;;5142224;27;20062;-75
2021/04/14 23:12:41;;;;;;;28.15;16.02;;;19.00;36.40;;;;;;5141380;27;20122;-74
2021/04/14 23:15:08;;;;;;;34.28;15.70;;;19.00;36.50;;;;;;5122695;27;20039;-74
2021/04/14 23:17:34;;;;;;;30.00;15.45;;;19.00;36.50;;;;;;5141427;27;20035;-72
2021/04/14 23:20:00;;;;;;;33.45;16.77;;;19.00;36.60;;;;;;5140608;27;20196;-72
2021/04/14 23:22:27;;;;;;;26.42;15.52;;;18.90;36.70;;;;;;5138781;27;20027;-72
2021/04/14 23:24:53;;;;;;;34.05;16.02;;;18.90;36.70;;;;;;5138454;27;20039;-73
2021/04/14 23:27:19;;;;;;;28.48;15.25;;;18.80;36.70;;;;;;5138759;27;20080;-72
2021/04/14 23:29:45;;;;;;;37.08;18.02;;;18.80;36.70;;;;;;5138599;27;20049;-71
2021/04/14 23:32:11;;;;;;;29.55;17.08;;;18.80;36.80;;;;;;5139702;27;20511;-74
2021/04/14 23:34:36;;;;;;;34.17;17.55;;;18.80;36.80;;;;;;5139853;27;20046;-73
2021/04/14 23:37:03;;;;;;;33.75;18.23;;;18.80;36.90;;;;;;5139608;27;20514;-72
2021/04/14 23:39:29;;;;;;;35.45;18.75;;;18.70;37.00;;;;;;5139024;27;20130;-72
2021/04/14 23:41:55;;;;;;;38.60;19.63;;;18.70;37.40;;;;;;5139957;27;20066;-75
2021/04/14 23:44:21;;;;;;;44.00;19.25;;;18.60;37.50;;;;;;5140202;27;20118;-74
2021/04/14 23:46:48;;;;;;;33.00;18.08;;;18.60;37.50;;;;;;5139832;27;20035;-74
2021/04/14 23:49:14;;;;;;;31.75;17.42;;;18.60;37.50;;;;;;5139920;27;20513;-73
2021/04/14 23:51:40;;;;;;;28.05;17.00;;;18.60;37.40;;;;;;5140050;27;20043;-72
2021/04/14 23:54:06;;;;;;;34.08;16.98;;;18.60;37.40;;;;;;5121445;27;20054;-74
2021/04/14 23:56:32;;;;;;;28.25;17.50;;;18.60;37.30;;;;;;5121357;27;20031;-74
2021/04/14 23:58:58;;;;;;;44.97;18.55;;;18.60;37.30;;;;;;5139478;27;20061;-73
